• Join FlightAware (Why Join?)
  • Login
  • US Flag 
02:55AM EDT


 

Airport Tracker/Info


-or-


 

Live Flight TrackerFlight Track Log ✈ DAL121 ✈ 07-May-2013 ✈ KJFK - SBGR / GRU

Flight Track Log - Related Links

Times and Time Zones

All times are in EDT time to prevent confusion due to time zone crossing. See the DAL121 flight status page for this flight to view local times or setup timezone preferences in your user account.

Time Position Orientation Groundspeed Altitude Reporting Facility
EDT Latitude Longitude Course Direction KTS MPH feet Rate Location/Type
11:14PM 40.6530 -73.7670 31° Northeast 183 211 500  Level FlightAware
11:15PM 40.6630 -73.7540 45° Northeast 183 211 1,100 1,560 Climbing FlightAware
11:15PM 40.6660 -73.7390 75° East 191 220 1,300 900 Climbing FlightAware
11:15PM 40.6680 -73.7090 85° East 218 251 1,700 1,200 Climbing FlightAware
11:15PM 40.6670 -73.6870 93° East 227 261 2,100 1,560 Climbing FlightAware
11:16PM 40.6600 -73.6690 117° Southeast 238 274 2,500 1,800 Climbing FlightAware
11:16PM 40.6480 -73.6520 133° Southeast 246 283 3,000 2,400 Climbing FlightAware
11:16PM 40.6340 -73.6410 149° Southeast 245 282 3,700 2,700 Climbing FlightAware
11:17PM 40.6100 -73.6210 148° Southeast 248 285 4,800 2,700 Climbing FlightAware
11:17PM 40.5950 -73.6080 147° Southeast 248 285 5,500 2,640 Climbing FlightAware
11:17PM 40.5660 -73.5826 146° Southeast 255 293 6,700 2,400 Climbing FlightAware ADS-B
11:17PM 40.5571 -73.5745 145° Southeast 258 297 7,000 1,980 Climbing FlightAware ADS-B
11:18PM 40.5517 -73.5692 143° Southeast 259 298 7,200 2,580 Climbing FlightAware ADS-B
11:18PM 40.5420 -73.5588 141° Southeast 259 298 7,700 2,700 Climbing FlightAware ADS-B
11:18PM 40.5302 -73.5439 136° Southeast 261 300 8,300 2,400 Climbing FlightAware ADS-B
11:18PM 40.5212 -73.5312 133° Southeast 263 303 8,700 2,220 Climbing FlightAware ADS-B
11:18PM 40.5089 -73.5126 131° Southeast 264 304 9,300 2,280 Climbing FlightAware ADS-B
11:19PM 40.4970 -73.4940 130° Southeast 266 306 9,900 1,680 Climbing FlightAware ADS-B
11:19PM 40.4824 -73.4726 132° Southeast 284 327 10,200 840 Climbing FlightAware ADS-B
11:19PM 40.4535 -73.4324 133° Southeast 316 364 10,600 1,080 Climbing FlightAware ADS-B
11:20PM 40.4353 -73.4067 133° Southeast 324 373 11,100 1,680 Climbing FlightAware ADS-B
11:20PM 40.4079 -73.3669 132° Southeast 338 389 11,900 1,440 Climbing FlightAware ADS-B
11:21PM 40.3749 -73.3190 132° Southeast 363 418 12,500 1,260 Climbing FlightAware ADS-B
11:21PM 40.3403 -73.2682 132° Southeast 381 438 13,200 1,680 Climbing FlightAware ADS-B
11:22PM 40.3033 -73.2083 129° Southeast 390 449 14,300 1,980 Climbing FlightAware ADS-B
11:22PM 40.2800 -73.1686 128° Southeast 396 456 15,000 2,340 Climbing FlightAware ADS-B
11:23PM 40.2449 -73.1073 127° Southeast 393 452 16,400 3,480 Climbing FlightAware ADS-B
11:23PM 40.2128 -73.0517 127° Southeast 362 417 18,700 3,240 Climbing FlightAware ADS-B
11:24PM 40.1817 -72.9985 127° Southeast 363 418 19,700 1,740 Climbing FlightAware ADS-B
11:24PM 40.1571 -72.9566 128° Southeast 370 426 20,300 1,500 Climbing FlightAware ADS-B
11:25PM 40.1255 -72.9028 128° Southeast 373 429 21,100 1,620 Climbing FlightAware ADS-B
11:25PM 40.0755 -72.8182 128° Southeast 379 436 22,400 1,440 Climbing FlightAware ADS-B
11:26PM 40.0222 -72.7279 128° Southeast 384 442 23,500 1,260 Climbing FlightAware ADS-B
11:27PM 39.9954 -72.6847 129° Southeast 391 450 24,000 1,260 Climbing FlightAware ADS-B
11:27PM 39.9888 -72.6761 135° Southeast 391 450 24,100 1,200 Climbing FlightAware ADS-B
11:27PM 39.9683 -72.6553 142° Southeast 390 449 24,400 1,140 Climbing FlightAware ADS-B
11:27PM 39.9502 -72.6414 150° Southeast 393 452 24,600 960 Climbing FlightAware ADS-B
11:28PM 39.9087 -72.6197 158° South 397 457 25,000 900 Climbing FlightAware ADS-B
11:28PM 39.8519 -72.5910 159° South 407 468 25,500 1,080 Climbing FlightAware ADS-B
11:29PM 39.7570 -72.5450 160° South 412 474 26,600 1,200 Climbing FlightAware
11:29PM 39.7413 -72.5372 159° South 413 475 26,800 900 Climbing FlightAware ADS-B
11:30PM 39.6870 -72.5110 160° South 411 473 27,300 1,020 Climbing FlightAware
11:30PM 39.6661 -72.5003 158° South 421 484 27,500 960 Climbing FlightAware ADS-B
11:30PM 39.6053 -72.4705 159° South 431 496 27,900 600 Climbing FlightAware ADS-B
11:31PM 39.5448 -72.4409 159° South 439 505 28,200 720 Climbing FlightAware ADS-B
11:32PM 39.4480 -72.3940 159° South 445 512 29,000 720 Climbing FlightAware
11:32PM 39.4268 -72.3832 159° South 446 513 29,000  Level FlightAware ADS-B
11:32PM 39.3710 -72.3560 159° South 435 501 29,000  Level FlightAware
11:33PM 39.2802 -72.3119 159° South 442 509 29,000  Level FlightAware ADS-B
11:34PM 39.1949 -72.2704 159° South 444 511 29,000  Level FlightAware ADS-B
11:34PM 39.1372 -72.2420 159° South 443 510 29,000  Level FlightAware ADS-B
11:35PM 39.0754 -72.2115 159° South 442 509 29,000  Level FlightAware ADS-B
11:35PM 39.0174 -72.1831 159° South 441 507 29,000  Level FlightAware ADS-B
11:36PM 38.9592 -72.1547 159° South 440 506 29,000  Level FlightAware ADS-B
11:36PM 38.8976 -72.1246 159° South 439 505 29,000  Level FlightAware ADS-B
11:37PM 38.8375 -72.0955 159° South 438 504 29,000  Level FlightAware ADS-B
11:38PM 38.7802 -72.0676 159° South 436 502 29,000  Level FlightAware ADS-B
11:38PM 38.7213 -72.0391 159° South 437 503 29,000  Level FlightAware ADS-B
11:39PM 38.6617 -72.0102 159° South 436 502 29,000  Level FlightAware ADS-B
11:39PM 38.5666 -71.9642 159° South 437 503 29,000  Level FlightAware ADS-B
11:40PM 38.4993 -71.9320 159° South 437 503 29,000  Level FlightAware ADS-B
11:41PM 38.4159 -71.8917 159° South 441 507 29,000 180 Level FlightAware ADS-B
11:42PM 38.3142 -71.8472 159° South 443 510 29,300 420 Climbing New York Center
11:43PM 38.1981 -71.7925 160° South 443 510 29,900 300 Climbing New York Center
11:44PM 38.0836 -71.7328 158° South 443 510 29,900  Level New York Center
11:45PM 37.9717 -71.6786 159° South 443 510 30,000  Climbing New York Center
11:46PM 37.8553 -71.6272 161° South 443 510 30,000 -60 Level New York Center
11:47PM 37.7389 -71.5681 158° South 443 510 29,900 -60 Descending New York Center
11:48PM 37.6222 -71.5169 161° South 443 510 29,900  Level New York Center
11:49PM 37.5308 -71.4714 158° South 443 510 29,900  Level New York Center
11:50PM 37.3936 -71.4019 158° South 443 510 30,000  Climbing New York Center
11:51PM 37.2833 -71.3331 154° Southeast 448 516 30,000  Level New York Center
11:52PM 37.1731 -71.2644 154° Southeast 448 516 30,000  Level New York Center
11:54PM 36.9569 -71.1322 155° Southeast  Level FlightAware Approximate
12:01AM 36.1625 -70.6695 155° Southeast  Level FlightAware Approximate
12:02AM 36.0489 -70.6042 155° Southeast  Level FlightAware Approximate
12:03AM 35.9352 -70.5390 155° Southeast  Level FlightAware Approximate
12:03AM 36.0000 -70.5833 155° Southeast 437 503 30,000  Level New York Oceanic (ODAPS)
12:04AM 35.8215 -70.4741 155° Southeast  Level FlightAware Approximate
12:05AM 35.7046 -70.4212 168° South  Level FlightAware Approximate
12:05AM 35.7667 -70.4500 168° South 424 488 31,000  Level New York Oceanic (ODAPS)
12:06AM 35.5821 -70.3887 168° South  Level FlightAware Approximate
12:07AM 35.4596 -70.3562 168° South  Level FlightAware Approximate
12:08AM 35.3372 -70.3239 168° South  Level FlightAware Approximate
12:09AM 35.2736 -70.3203 168° South 437 503 30,000  Level FlightAware Transoceanic
12:10AM 35.1503 -70.2881 168° South 437 503 30,000 480 Level FlightAware Transoceanic
12:11AM 35.0622 -70.2652 168° South 424 488 31,000 480 Climbing FlightAware Transoceanic
12:12AM 34.9448 -70.2347 168° South 424 488 31,000  Level FlightAware Transoceanic
12:13AM 34.8274 -70.2043 168° South 424 488 31,000  Level FlightAware Transoceanic
12:14AM 34.7099 -70.1740 168° South 424 488 31,000  Level FlightAware Transoceanic
12:15AM 34.5925 -70.1437 168° South 424 488 31,000  Level FlightAware Transoceanic
12:16AM 34.4750 -70.1136 168° South 424 488 31,000  Level FlightAware Transoceanic
12:16AM 34.4167 -70.1000 168° South 426 490 31,000  Level New York Oceanic (ODAPS)
12:17AM 34.3575 -70.0835 168° South 424 488 31,000  Level FlightAware Transoceanic
12:18AM 34.2401 -70.0535 168° South 424 488 31,000  Level FlightAware Transoceanic
12:19AM 34.1226 -70.0236 168° South 424 488 31,000  Level FlightAware Transoceanic
12:20AM 34.0051 -69.9938 168° South 424 488 31,000  Level FlightAware Transoceanic
12:21AM 33.8876 -69.9641 168° South 424 488 31,000  Level FlightAware Transoceanic
12:22AM 33.7701 -69.9344 168° South 424 488 31,000  Level FlightAware Transoceanic
12:23AM 33.6351 -69.9009 168° South 426 490 31,000  Level FlightAware Transoceanic
12:24AM 33.5234 -69.8727 168° South 426 490 31,000  Level FlightAware Transoceanic
12:25AM 33.4117 -69.8447 168° South 426 490 31,000  Level FlightAware Transoceanic
12:26AM 33.3000 -69.8167 168° South 426 490 31,000  Level FlightAware Transoceanic
12:26AM 33.3000 -69.8167 168° South 439 505 31,000  Level New York Oceanic (ODAPS)
12:27AM 33.1801 -69.7868 168° South 426 490 31,000  Level FlightAware Transoceanic
12:28AM 33.0601 -69.7569 168° South 426 490 31,000  Level FlightAware Transoceanic
12:29AM 32.9402 -69.7272 168° South 426 490 31,000  Level FlightAware Transoceanic
12:30AM 32.8202 -69.6975 168° South 426 490 31,000  Level FlightAware Transoceanic
12:30AM 32.7667 -69.6833 168° South 436 502 31,000  Level New York Oceanic (ODAPS)
12:31AM 32.7002 -69.6679 168° South 426 490 31,000  Level FlightAware Transoceanic
12:32AM 32.5803 -69.6384 168° South 439 505 31,000  Level FlightAware Transoceanic
12:33AM 32.4603 -69.6090 168° South 439 505 31,000  Level FlightAware Transoceanic
12:34AM 32.3403 -69.5796 168° South 439 505 31,000  Level FlightAware Transoceanic
12:35AM 32.2203 -69.5504 168° South 439 505 31,000  Level FlightAware Transoceanic
12:36AM 32.0668 -69.5124 168° South 436 502 31,000  Level FlightAware Transoceanic
12:37AM 31.9502 -69.4842 168° South 436 502 31,000  Level FlightAware Transoceanic
12:38AM 31.8335 -69.4561 168° South 436 502 31,000  Level FlightAware Transoceanic
12:39AM 31.7169 -69.4280 168° South 436 502 31,000  Level FlightAware Transoceanic
12:40AM 31.6002 -69.4000 168° South 436 502 31,000  Level FlightAware Transoceanic
12:41AM 31.4835 -69.3720 168° South 436 502 31,000  Level FlightAware Transoceanic
12:42AM 31.3668 -69.3441 168° South 436 502 31,000  Level FlightAware Transoceanic
12:43AM 31.2501 -69.3163 169° South 436 502 31,000  Level FlightAware Transoceanic
12:44AM 31.1334 -69.2886 169° South 436 502 31,000  Level FlightAware Transoceanic
12:44AM 31.1167 -69.2833 169° South 439 505 31,000  Level New York Oceanic (ODAPS)
12:45AM 31.0167 -69.2609 169° South 436 502 31,000  Level FlightAware Transoceanic
12:46AM 30.9000 -69.2333 168° South 436 502 31,000  Level FlightAware Transoceanic
12:46AM 30.9000 -69.2333 168° South 440 506 31,000  Level New York Oceanic (ODAPS)
12:47AM 30.7748 -69.2035 168° South 436 502 31,000  Level FlightAware Transoceanic
12:48AM 30.6495 -69.1737 168° South 436 502 31,000  Level FlightAware Transoceanic
12:49AM 30.5243 -69.1440 168° South 436 502 31,000  Level FlightAware Transoceanic
12:50AM 30.3990 -69.1143 168° South 439 505 31,000  Level FlightAware Transoceanic
12:51AM 30.2737 -69.0848 168° South 439 505 31,000  Level FlightAware Transoceanic
12:52AM 30.1585 -69.0577 169° South 440 506 31,000  Level FlightAware Transoceanic
12:53AM 30.0349 -69.0287 169° South 440 506 31,000  Level FlightAware Transoceanic
12:54AM 29.9112 -68.9997 169° South 440 506 31,000  Level FlightAware Transoceanic
12:55AM 29.7876 -68.9708 169° South 440 506 31,000  Level FlightAware Transoceanic
12:56AM 29.6640 -68.9420 169° South 440 506 31,000  Level FlightAware Transoceanic
12:57AM 29.5404 -68.9133 169° South 440 506 31,000  Level FlightAware Transoceanic
12:58AM 29.4167 -68.8846 169° South 440 506 31,000  Level FlightAware Transoceanic
12:58AM 29.4333 -68.8833 169° South 454 522 31,000  Level New York Oceanic (ODAPS)
12:59AM 29.2931 -68.8560 169° South 440 506 31,000  Level FlightAware Transoceanic
01:00AM 29.1694 -68.8275 169° South 440 506 31,000  Level FlightAware Transoceanic
01:01AM 29.0458 -68.7991 169° South 440 506 31,000  Level FlightAware Transoceanic
01:02AM 28.9221 -68.7707 169° South 440 506 31,000  Level FlightAware Transoceanic
01:03AM 28.7984 -68.7424 169° South 440 506 31,000  Level FlightAware Transoceanic
01:03AM 28.8167 -68.7333 169° South 455 524 31,000  Level New York Oceanic (ODAPS)
01:04AM 28.6778 -68.7102 169° South 454 522 31,000  Level FlightAware Transoceanic
01:05AM 28.5518 -68.6816 169° South 454 522 31,000  Level FlightAware Transoceanic
01:06AM 28.4259 -68.6530 169° South 454 522 31,000  Level FlightAware Transoceanic
01:07AM 28.2999 -68.6245 169° South 454 522 31,000  Level FlightAware Transoceanic
01:08AM 28.1740 -68.5961 169° South 454 522 31,000  Level FlightAware Transoceanic
01:09AM 28.0480 -68.5678 169° South 454 522 31,000  Level FlightAware Transoceanic
01:10AM 27.9334 -68.5347 169° South 455 524 31,000  Level FlightAware Transoceanic
01:10AM 27.9333 -68.5333 169° South 458 527 31,000  Level New York Oceanic (ODAPS)
01:11AM 27.8071 -68.5066 169° South 455 524 31,000  Level FlightAware Transoceanic
01:12AM 27.6809 -68.4785 169° South 455 524 31,000  Level FlightAware Transoceanic
01:12AM 27.7000 -68.4833 169° South 453 521 31,000  Level New York Oceanic (ODAPS)
01:13AM 27.5547 -68.4505 169° South 455 524 31,000  Level FlightAware Transoceanic
01:14AM 27.4285 -68.4226 169° South 455 524 31,000  Level FlightAware Transoceanic
01:15AM 27.3022 -68.3948 169° South 455 524 31,000  Level FlightAware Transoceanic
01:16AM 27.1760 -68.3670 169° South 455 524 31,000  Level FlightAware Transoceanic
01:17AM 27.0497 -68.3381 169° South 458 527 31,000  Level FlightAware Transoceanic
01:18AM 26.9402 -68.3157 169° South 453 521 31,000  Level FlightAware Transoceanic
01:19AM 26.8136 -68.2880 169° South 453 521 31,000  Level FlightAware Transoceanic
01:20AM 26.6869 -68.2604 169° South 453 521 31,000  Level FlightAware Transoceanic
01:21AM 26.5602 -68.2328 169° South 453 521 31,000  Level FlightAware Transoceanic
01:22AM 26.4336 -68.2053 169° South 453 521 31,000  Level FlightAware Transoceanic
01:23AM 26.3069 -68.1778 169° South 453 521 31,000  Level FlightAware Transoceanic
01:24AM 26.1802 -68.1504 169° South 453 521 31,000  Level FlightAware Transoceanic
01:25AM 26.0535 -68.1230 169° South 453 521 31,000  Level FlightAware Transoceanic
01:26AM 25.9268 -68.0957 169° South 453 521 31,000  Level FlightAware Transoceanic
01:26AM 25.9833 -68.1167 169° South 453 521 31,000  Level New York Oceanic (ODAPS)
01:27AM 25.8002 -68.0685 169° South 453 521 31,000  Level FlightAware Transoceanic
01:28AM 25.6735 -68.0414 169° South 453 521 31,000  Level FlightAware Transoceanic
01:29AM 25.5467 -68.0142 169° South 453 521 31,000  Level FlightAware Transoceanic
01:30AM 25.4200 -67.9872 169° South 453 521 31,000  Level FlightAware Transoceanic
01:30AM 25.4667 -68.0000 169° South 456 525 31,000  Level New York Oceanic (ODAPS)
01:31AM 25.2933 -67.9602 169° South 453 521 31,000  Level FlightAware Transoceanic
01:32AM 25.2132 -67.9503 169° South 453 521 31,000  Level FlightAware Transoceanic
01:33AM 25.0848 -67.9228 169° South 453 521 31,000  Level FlightAware Transoceanic
01:34AM 24.9564 -67.8953 169° South 453 521 31,000  Level FlightAware Transoceanic
01:35AM 24.8280 -67.8679 169° South 453 521 31,000  Level FlightAware Transoceanic
01:36AM 24.7218 -67.8414 169° South 456 525 31,000  Level FlightAware Transoceanic
01:37AM 24.5977 -67.8152 169° South 456 525 31,000  Level FlightAware Transoceanic
01:38AM 24.4735 -67.7890 169° South 456 525 31,000  Level FlightAware Transoceanic
01:39AM 24.3493 -67.7628 169° South 456 525 31,000  Level FlightAware Transoceanic
01:39AM 24.2667 -67.7500 169° South 463 533 31,000  Level New York Oceanic (ODAPS)
01:40AM 24.2252 -67.7367 169° South 456 525 31,000  Level FlightAware Transoceanic
01:40AM 24.2500 -67.7333 169° South 462 532 31,000  Level New York Oceanic (ODAPS)
01:41AM 24.1010 -67.7107 169° South 456 525 31,000  Level FlightAware Transoceanic
01:42AM 23.9768 -67.6847 169° South 456 525 31,000  Level FlightAware Transoceanic
01:43AM 23.8526 -67.6588 169° South 456 525 31,000  Level FlightAware Transoceanic
01:44AM 23.7285 -67.6329 169° South 456 525 31,000  Level FlightAware Transoceanic
01:45AM 23.6043 -67.6070 169° South 456 525 31,000  Level FlightAware Transoceanic
01:46AM 23.4602 -67.5711 169° South 462 532 31,000  Level FlightAware Transoceanic
01:46AM 23.3500 -67.5500 169° South 460 529 31,000  Level San Juan Center
01:47AM 23.3285 -67.5443 169° South 462 532 31,000  Level FlightAware Transoceanic
01:47AM 23.2167 -67.5167 167° South 460 529 31,000  Level San Juan Center
01:48AM 23.1969 -67.5175 169° South 462 532 31,000  Level FlightAware Transoceanic
01:48AM 23.1000 -67.5000 173° South 460 529 31,000  Level San Juan Center
01:49AM 23.0652 -67.4908 169° South 462 532 31,000  Level FlightAware Transoceanic
01:49AM 22.9667 -67.4667 167° South 460 529 31,000  Level San Juan Center
01:50AM 22.9336 -67.4641 169° South 462 532 31,000  Level FlightAware Transoceanic
01:50AM 22.8500 -67.4500 173° South 450 518 31,000  Level San Juan Center
01:51AM 22.8019 -67.4374 169° South 462 532 31,000  Level FlightAware Transoceanic
01:51AM 22.7167 -67.4167 167° South 460 529 31,000  Level San Juan Center
01:52AM 22.6702 -67.4109 169° South 462 532 31,000  Level FlightAware Transoceanic
01:52AM 22.6000 -67.4000 172° South 450 518 31,000  Level San Juan Center
01:53AM 22.4667 -67.3667 167° South 460 529 31,000  Level San Juan Center
01:53AM 22.5000 -67.3833 169° South 456 525 31,000  Level New York Oceanic (ODAPS)
01:54AM 22.3500 -67.3500 169° South 460 529 31,000  Level San Juan Center
01:55AM 22.2167 -67.3167 167° South 450 518 31,000  Level San Juan Center
01:56AM 22.2333 -67.3167 170° South 461 531 31,000  Level New York Oceanic (ODAPS)
01:56AM 22.1000 -67.2833 170° South 450 518 31,000  Level San Juan Center
01:57AM 21.9667 -67.2667 173° South 460 529 31,000  Level San Juan Center
01:58AM 21.8500 -67.2333 165° South 450 518 31,000  Level San Juan Center
01:59AM 21.7167 -67.2167 173° South 470 541 31,000  Level San Juan Center
02:00AM 21.6000 -67.1833 165° South 450 518 31,000  Level San Juan Center
02:01AM 21.4667 -67.1500 167° South 470 541 31,000  Level San Juan Center
02:02AM 21.3500 -67.0833 152° Southeast 460 529 31,000  Level San Juan Center
02:03AM 21.2333 -67.0333 158° South 460 529 31,000  Level San Juan Center
02:04AM 21.1167 -66.9833 158° South 460 529 31,000  Level San Juan Center
02:10AM 20.5030 -66.6740 158° South 465 535 31,000  Level FlightAware
02:11AM 20.4090 -66.6280 155° Southeast 465 535 31,000  Level FlightAware
02:12AM 20.2820 -66.5690 156° South 470 541 31,000  Level FlightAware
02:12AM 20.2040 -66.5320 156° South 473 544 31,000  Level FlightAware
02:13AM 20.1140 -66.4890 156° South 476 548 31,000  Level FlightAware
02:14AM 20.0320 -66.4500 156° South 479 551 31,000  Level FlightAware
02:14AM 19.9400 -66.4060 156° South 480 552 31,000  Level FlightAware
02:15AM 19.8580 -66.3670 156° South 481 554 31,000  Level FlightAware
02:16AM 19.7770 -66.3290 156° South 481 554 31,000  Level FlightAware
02:16AM 19.6940 -66.2890 156° South 481 554 31,000  Level FlightAware
02:17AM 19.6060 -66.2480 156° South 481 554 31,000  Level FlightAware
02:18AM 19.5110 -66.2030 156° South 479 551 31,000  Level FlightAware
02:19AM 19.4310 -66.1650 156° South 479 551 31,000  Level FlightAware
02:19AM 19.3410 -66.1230 156° South 477 549 31,000  Level FlightAware
02:20AM 19.2570 -66.0830 156° South 476 548 31,000  Level FlightAware
02:21AM 19.1800 -66.0470 156° South 474 545 31,000  Level FlightAware
02:21AM 19.0880 -66.0040 156° South 473 544 31,000  Level FlightAware
02:22AM 19.0070 -65.9650 156° South 472 543 31,000  Level FlightAware
02:23AM 18.9200 -65.9240 156° South 473 544 31,000  Level FlightAware
02:24AM 18.8400 -65.8870 156° South 471 542 31,000  Level FlightAware
02:24AM 18.7590 -65.8490 156° South 471 542 31,000  Level FlightAware
02:25AM 18.6680 -65.8060 156° South 471 542 31,000  Level FlightAware
02:26AM 18.5880 -65.7690 156° South 470 541 31,000  Level FlightAware
02:26AM 18.4990 -65.7270 156° South 470 541 31,000  Level FlightAware
02:27AM 18.4200 -65.6900 156° South 470 541 31,000  Level FlightAware
02:28AM 18.3400 -65.6520 156° South 471 542 31,000  Level FlightAware
02:28AM 18.2490 -65.6100 156° South 471 542 31,000  Level FlightAware
02:29AM 18.1680 -65.5720 156° South 471 542 31,000  Level FlightAware
02:30AM 18.0810 -65.5310 156° South 471 542 31,000  Level FlightAware
02:31AM 18.0010 -65.4930 156° South 471 542 31,000  Level FlightAware
02:31AM 17.9210 -65.4560 156° South 471 542 31,000  Level FlightAware
02:32AM 17.8410 -65.4190 156° South 471 542 31,000  Level FlightAware
02:33AM 17.7500 -65.3760 156° South 470 541 31,000  Level FlightAware
02:33AM 17.6690 -65.3390 156° South 471 542 31,000  Level FlightAware
02:34AM 17.5820 -65.2990 156° South 471 542 31,000  Level FlightAware
02:35AM 17.5020 -65.2620 156° South 472 543 31,000  Level FlightAware
02:35AM 17.4230 -65.2240 155° Southeast 472 543 31,000  Level FlightAware
02:36AM 17.3550 -65.1930 156° South 472 543 31,000  Level FlightAware
02:37AM 17.2870 -65.1610 156° South 472 543 31,000  Level FlightAware
02:37AM 17.2190 -65.1300 156° South 472 543 31,000  Level FlightAware
02:38AM 17.1510 -65.0980 156° South 472 543 31,000  Level FlightAware
02:39AM 17.0670 -65.0580 156° South 472 543 31,000  Level FlightAware
02:40AM 16.9990 -65.0270 156° South 472 543 31,000  Level FlightAware
02:40AM 16.9310 -64.9950 156° South 472 543 31,000  Level FlightAware
02:41AM 16.8630 -64.9640 156° South 472 543 31,000  Level FlightAware
02:42AM 16.7950 -64.9320 156° South 472 543 31,000  Level FlightAware
02:42AM 16.7100 -64.8930 156° South 472 543 31,000  Level FlightAware
02:43AM 16.6430 -64.8610 155° Southeast 472 543 31,000  Level FlightAware
02:44AM 16.5750 -64.8300 156° South 472 543 31,000  Level FlightAware
02:44AM 16.5070 -64.7980 156° South 472 543 31,000  Level FlightAware
02:46AM 16.1333 -64.6667 156° South 470 541 31,000  Level San Juan Center
02:47AM 16.0333 -64.6167 154° Southeast 470 541 31,000  Level San Juan Center
02:48AM 15.9000 -64.5500 154° Southeast 470 541 31,000  Level San Juan Center
02:49AM 15.8000 -64.5000 154° Southeast 460 529 31,000  Level San Juan Center
02:50AM 15.6833 -64.4333 151° Southeast 470 541 31,000  Level San Juan Center
02:55AM 14.9990 -64.1130 151° Southeast 478 550 31,000  Level FlightAware
02:56AM 14.9190 -64.0600 147° Southeast 478 550 31,000  Level FlightAware
02:57AM 14.8480 -64.0120 147° Southeast 478 550 31,000  Level FlightAware
02:57AM 14.7820 -63.9680 147° Southeast 477 549 31,000  Level FlightAware
02:58AM 14.6640 -63.8870 146° Southeast 476 548 31,000  Level FlightAware
02:59AM 14.5730 -63.8270 147° Southeast 475 547 31,000  Level FlightAware
03:00AM 14.5100 -63.7850 147° Southeast 475 547 31,000  Level FlightAware
03:01AM 14.4470 -63.7430 147° Southeast 475 547 31,000  Level FlightAware
03:01AM 14.3540 -63.6820 148° Southeast 475 547 31,000  Level FlightAware
03:02AM 14.2750 -63.6290 147° Southeast 476 548 31,000  Level FlightAware
03:03AM 14.2020 -63.5810 147° Southeast 475 547 31,000  Level FlightAware
03:05AM 13.9718 -63.5074 149° Southeast  Level FlightAware Approximate
03:06AM 13.8649 -63.4419 149° Southeast  Level FlightAware Approximate
03:07AM 13.7579 -63.3764 149° Southeast  Level FlightAware Approximate
03:07AM 13.7280 -63.2660 149° Southeast 473 544 31,000  Level FlightAware
03:08AM 13.6550 -63.2190 148° Southeast 473 544 31,000  Level FlightAware
03:08AM 13.5740 -63.1650 147° Southeast 473 544 31,000  Level FlightAware
03:09AM 13.4990 -63.1160 148° Southeast 473 544 31,000  Level FlightAware
03:10AM 13.4210 -63.0650 148° Southeast 473 544 31,000  Level FlightAware
03:11AM 13.3120 -62.9930 147° Southeast 473 544 31,000  Level FlightAware
03:11AM 13.2320 -62.9410 148° Southeast 473 544 31,000  Level FlightAware
03:12AM 13.1560 -62.8910 147° Southeast 474 545 31,000  Level FlightAware
03:13AM 13.0820 -62.8420 147° Southeast 474 545 31,000  Level FlightAware
03:13AM 13.0120 -62.7970 148° Southeast 473 544 31,000  Level FlightAware
03:14AM 12.9250 -62.7390 147° Southeast 472 543 31,000  Level FlightAware
03:15AM 12.8410 -62.6840 147° Southeast 471 542 31,000  Level FlightAware
03:16AM 12.7410 -62.6190 148° Southeast 471 542 31,000  Level FlightAware
03:17AM 12.6400 -62.5530 147° Southeast 469 540 31,000  Level FlightAware
03:17AM 12.5680 -62.5050 147° Southeast 470 541 31,000  Level FlightAware
03:18AM 12.5520 -62.4950 149° Southeast 470 541 31,000  Level FlightAware
03:19AM 12.3830 -62.3850 148° Southeast 467 537 31,000  Level FlightAware
03:20AM 12.3110 -62.3380 147° Southeast 467 537 31,000  Level FlightAware
03:20AM 12.2300 -62.2860 148° Southeast 466 536 31,000  Level FlightAware
03:21AM 12.1870 -62.2580 148° Southeast 466 536 31,000  Level FlightAware
03:22AM 12.1260 -62.2170 147° Southeast 466 536 31,000  Level FlightAware
03:23AM 12.0640 -62.1760 147° Southeast 466 536 31,000  Level FlightAware
03:23AM 12.0030 -62.1350 147° Southeast 466 536 31,000  Level FlightAware
03:24AM 11.9260 -62.0840 147° Southeast 466 536 31,000  Level FlightAware
03:25AM 11.8640 -62.0430 147° Southeast 466 536 31,000  Level FlightAware
03:26AM 11.8030 -62.0030 147° Southeast 466 536 31,000  Level FlightAware
03:26AM 11.7410 -61.9620 147° Southeast 466 536 31,000  Level FlightAware
03:27AM 11.6650 -61.9110 147° Southeast 466 536 31,000  Level FlightAware
03:28AM 11.6030 -61.8700 147° Southeast 466 536 31,000  Level FlightAware
03:28AM 11.5420 -61.8290 147° Southeast 466 536 31,000  Level FlightAware
03:29AM 11.4800 -61.7890 148° Southeast 466 536 31,000  Level FlightAware
03:30AM 11.4190 -61.7480 147° Southeast 466 536 31,000  Level FlightAware
03:30AM 11.3570 -61.7070 147° Southeast 466 536 31,000  Level FlightAware
03:33AM 11.1129 -61.6007 157° South  Level Estimated
03:34AM 10.9984 -61.5509 157° South  Level Estimated
03:35AM 10.8840 -61.5012 157° South  Level Estimated
03:36AM 10.7695 -61.4515 157° South  Level Estimated
03:37AM 10.6551 -61.4018 157° South  Level Estimated
03:38AM 10.5405 -61.3521 157° South  Level Estimated
03:39AM 10.4260 -61.3025 157° South  Level Estimated
03:40AM 10.3114 -61.2529 157° South  Level Estimated
03:41AM 10.1969 -61.2034 157° South  Level Estimated
03:42AM 10.0823 -61.1539 157° South  Level Estimated
03:43AM 9.9677 -61.1044 157° South  Level Estimated
03:44AM 9.8532 -61.0550 157° South  Level Estimated
03:45AM 9.7386 -61.0056 157° South  Level Estimated
03:46AM 9.6240 -60.9562 157° South  Level Estimated
03:47AM 9.5094 -60.9069 157° South  Level Estimated
03:48AM 9.3947 -60.8576 157° South  Level Estimated
03:49AM 9.2801 -60.8083 157° South  Level Estimated
03:50AM 9.1655 -60.7591 157° South  Level Estimated
03:51AM 9.0509 -60.7099 157° South  Level Estimated
03:52AM 8.9362 -60.6607 157° South  Level Estimated
03:53AM 8.8216 -60.6115 157° South  Level Estimated
03:54AM 8.7070 -60.5624 157° South  Level Estimated
03:55AM 8.5923 -60.5134 157° South  Level Estimated
03:56AM 8.4776 -60.4643 157° South  Level Estimated
03:57AM 8.3630 -60.4153 157° South  Level Estimated
03:58AM 8.2483 -60.3663 157° South  Level Estimated
03:59AM 8.1336 -60.3173 157° South  Level Estimated
04:00AM 8.0189 -60.2684 157° South  Level Estimated
04:01AM 7.9042 -60.2195 157° South  Level Estimated
04:02AM 7.7895 -60.1706 157° South  Level Estimated
04:03AM 7.6748 -60.1217 157° South  Level Estimated
04:04AM 7.5601 -60.0729 157° South  Level Estimated
04:05AM 7.4454 -60.0241 157° South  Level Estimated
04:06AM 7.3307 -59.9753 157° South  Level Estimated
04:07AM 7.2160 -59.9266 157° South  Level Estimated
04:08AM 7.1012 -59.8778 157° South  Level Estimated
04:09AM 6.9865 -59.8291 157° South  Level Estimated
04:10AM 6.8718 -59.7804 157° South  Level Estimated
04:11AM 6.7570 -59.7318 157° South  Level Estimated
04:12AM 6.6423 -59.6832 157° South  Level Estimated
04:13AM 6.5275 -59.6345 157° South  Level Estimated
04:14AM 6.4128 -59.5860 157° South  Level Estimated
04:15AM 6.2980 -59.5374 157° South  Level Estimated
04:16AM 6.1832 -59.4888 157° South  Level Estimated
04:17AM 6.0685 -59.4403 157° South  Level Estimated
04:18AM 5.9537 -59.3918 157° South  Level Estimated
04:19AM 5.8389 -59.3433 157° South  Level Estimated
04:20AM 5.7241 -59.2949 157° South  Level Estimated
04:21AM 5.6093 -59.2464 157° South  Level Estimated
04:22AM 5.4946 -59.1980 157° South  Level Estimated
04:23AM 5.3797 -59.1496 157° South  Level Estimated
04:24AM 5.2649 -59.1012 157° South  Level Estimated
04:25AM 5.1501 -59.0528 157° South  Level Estimated
04:26AM 5.0353 -59.0045 157° South  Level Estimated
04:27AM 4.9205 -58.9561 157° South  Level Estimated
04:28AM 4.8057 -58.9078 157° South  Level Estimated
04:29AM 4.6909 -58.8595 157° South  Level Estimated
04:30AM 4.5761 -58.8112 157° South  Level Estimated
04:31AM 4.4613 -58.7630 157° South  Level Estimated
04:32AM 4.3464 -58.7147 157° South  Level Estimated
04:33AM 4.2316 -58.6665 157° South  Level Estimated
04:34AM 4.1168 -58.6182 157° South  Level Estimated
04:35AM 4.0019 -58.5700 157° South  Level Estimated
04:36AM 3.8871 -58.5218 157° South  Level Estimated
04:37AM 3.7722 -58.4736 157° South  Level Estimated
04:38AM 3.6574 -58.4254 157° South  Level Estimated
04:39AM 3.5426 -58.3773 157° South  Level Estimated
04:40AM 3.4277 -58.3291 157° South  Level Estimated
04:41AM 3.3128 -58.2810 157° South  Level Estimated
04:42AM 3.1980 -58.2329 157° South  Level Estimated
04:43AM 3.0831 -58.1847 157° South  Level Estimated
04:44AM 2.9683 -58.1366 157° South  Level Estimated
04:45AM 2.8534 -58.0885 157° South  Level Estimated
04:46AM 2.7386 -58.0404 157° South  Level Estimated
04:47AM 2.6237 -57.9924 157° South  Level Estimated
04:48AM 2.5088 -57.9443 157° South  Level Estimated
04:49AM 2.3939 -57.8962 157° South  Level Estimated
04:50AM 2.2791 -57.8482 157° South  Level Estimated
04:51AM 2.1642 -57.8001 157° South  Level Estimated
04:52AM 2.0493 -57.7521 157° South  Level Estimated
04:53AM 1.9345 -57.7041 157° South  Level Estimated
04:54AM 1.8196 -57.6561 157° South  Level Estimated
04:55AM 1.7045 -57.6079 157° South  Level Estimated
04:56AM 1.5894 -57.5598 157° South  Level Estimated
04:57AM 1.4743 -57.5118 157° South  Level Estimated
04:58AM 1.3592 -57.4637 157° South  Level Estimated
04:59AM 1.2442 -57.4156 157° South  Level Estimated
05:00AM 1.1291 -57.3675 157° South  Level Estimated
05:01AM 1.0140 -57.3194 157° South  Level Estimated
05:02AM 0.8989 -57.2714 157° South  Level Estimated
05:03AM 0.7838 -57.2233 157° South  Level Estimated
05:04AM 0.6687 -57.1752 157° South  Level Estimated
05:05AM 0.5536 -57.1272 157° South  Level Estimated
05:06AM 0.4385 -57.0791 157° South  Level Estimated
05:07AM 0.3234 -57.0310 157° South  Level Estimated
05:08AM 0.2083 -56.9830 157° South  Level Estimated
05:09AM 0.0932 -56.9349 157° South  Level Estimated
05:10AM -0.0218 -56.8869 157° South  Level Estimated
05:11AM -0.1369 -56.8388 157° South  Level Estimated
05:12AM -0.2520 -56.7907 157° South  Level Estimated
05:13AM -0.3671 -56.7427 157° South  Level Estimated
05:14AM -0.4822 -56.6946 157° South  Level Estimated
05:15AM -0.5973 -56.6466 157° South  Level Estimated
05:16AM -0.7124 -56.5985 157° South  Level Estimated
05:17AM -0.8275 -56.5504 157° South  Level Estimated
05:18AM -0.9426 -56.5024 157° South  Level Estimated
05:19AM -1.0576 -56.4543 157° South  Level Estimated
05:20AM -1.1727 -56.4062 157° South  Level Estimated
05:21AM -1.2878 -56.3581 157° South  Level Estimated
05:22AM -1.4029 -56.3101 157° South  Level Estimated
05:23AM -1.5180 -56.2620 157° South  Level Estimated
05:24AM -1.6331 -56.2139 157° South  Level Estimated
05:25AM -1.7482 -56.1658 157° South  Level Estimated
05:26AM -1.8633 -56.1177 157° South  Level Estimated
05:27AM -1.9783 -56.0695 157° South  Level Estimated
05:28AM -2.0934 -56.0214 157° South  Level Estimated
05:29AM -2.2085 -55.9733 157° South  Level Estimated
05:30AM -2.3236 -55.9252 157° South  Level Estimated
05:31AM -2.4386 -55.8770 157° South  Level Estimated
05:32AM -2.5537 -55.8289 157° South  Level Estimated
05:33AM -2.6688 -55.7807 157° South  Level Estimated
05:34AM -2.7839 -55.7326 157° South  Level Estimated
05:35AM -2.8989 -55.6844 157° South  Level Estimated
05:36AM -3.0140 -55.6362 157° South  Level Estimated
05:37AM -3.1291 -55.5880 157° South  Level Estimated
05:38AM -3.2441 -55.5398 157° South  Level Estimated
05:39AM -3.3592 -55.4916 157° South  Level Estimated
05:40AM -3.4742 -55.4433 157° South  Level Estimated
05:41AM -3.5893 -55.3951 157° South  Level Estimated
05:42AM -3.7043 -55.3468 157° South  Level Estimated
05:43AM -3.8194 -55.2986 157° South  Level Estimated
05:44AM -3.9344 -55.2503 157° South  Level Estimated
05:45AM -4.0495 -55.2020 157° South  Level Estimated
05:46AM -4.1645 -55.1537 157° South  Level Estimated
05:47AM -4.2796 -55.1054 157° South  Level Estimated
05:48AM -4.3946 -55.0570 157° South  Level Estimated
05:49AM -4.5096 -55.0087 157° South  Level Estimated
05:50AM -4.6247 -54.9603 157° South  Level Estimated
05:51AM -4.7397 -54.9119 157° South  Level Estimated
05:52AM -4.8547 -54.8635 157° South  Level Estimated
05:53AM -4.9697 -54.8151 157° South  Level Estimated
05:54AM -5.0847 -54.7667 157° South  Level Estimated
05:55AM -5.1997 -54.7182 157° South  Level Estimated
05:56AM -5.3148 -54.6698 157° South  Level Estimated
05:57AM -5.4297 -54.6213 157° South  Level Estimated
05:58AM -5.5448 -54.5728 157° South  Level Estimated
05:59AM -5.6597 -54.5243 157° South  Level Estimated
06:00AM -5.7747 -54.4757 157° South  Level Estimated
06:01AM -5.8897 -54.4272 157° South  Level Estimated
06:02AM -6.0047 -54.3786 157° South  Level Estimated
06:03AM -6.1197 -54.3300 157° South  Level Estimated
06:04AM -6.2347 -54.2814 157° South  Level Estimated
06:05AM -6.3496 -54.2327 157° South  Level Estimated
06:06AM -6.4644 -54.1842 157° South  Level Estimated
06:07AM -6.5792 -54.1356 157° South  Level Estimated
06:08AM -6.6935 -54.0871 157° South  Level Estimated
06:09AM -6.8078 -54.0386 157° South  Level Estimated
06:10AM -6.9222 -53.9901 157° South  Level Estimated
06:11AM -7.0365 -53.9416 157° South  Level Estimated
06:12AM -7.1508 -53.8931 157° South  Level Estimated
06:13AM -7.2651 -53.8445 157° South  Level Estimated
06:14AM -7.3794 -53.7959 157° South  Level Estimated
06:15AM -7.4938 -53.7473 157° South  Level Estimated
06:16AM -7.6080 -53.6987 157° South  Level Estimated
06:17AM -7.7224 -53.6500 157° South  Level Estimated
06:18AM -7.8366 -53.6013 157° South  Level Estimated
06:19AM -7.9509 -53.5526 157° South  Level Estimated
06:20AM -8.0652 -53.5038 157° South  Level Estimated
06:21AM -8.1795 -53.4550 157° South  Level Estimated
06:22AM -8.2938 -53.4062 157° South  Level Estimated
06:23AM -8.4080 -53.3574 157° South  Level Estimated
06:24AM -8.5223 -53.3086 157° South  Level Estimated
06:25AM -8.6365 -53.2597 157° South  Level Estimated
06:26AM -8.7508 -53.2107 157° South  Level Estimated
06:27AM -8.8650 -53.1618 157° South  Level Estimated
06:28AM -8.9792 -53.1128 157° South  Level Estimated
06:29AM -9.0935 -53.0638 157° South  Level Estimated
06:30AM -9.2077 -53.0148 157° South  Level Estimated
06:31AM -9.3219 -52.9657 157° South  Level Estimated
06:31AM -9.7960 -51.1770 157° South 485 558 33,000  Level FlightAware
06:32AM -9.4361 -52.9166 157° South  Level Estimated
06:32AM -9.8620 -51.1430 153° Southeast 485 558 33,000  Level FlightAware
06:33AM -9.9810 -51.0830 154° Southeast 486 559 33,000  Level FlightAware
06:34AM -10.0490 -51.0480 153° Southeast 486 559 33,000  Level FlightAware
06:34AM -9.9330 -51.1080 333° Northwest 33,000  Level FlightAware
06:34AM -10.1470 -50.9990 153° Southeast 485 558 33,000  Level FlightAware
06:35AM -10.2240 -50.9600 154° Southeast 485 558 33,000  Level FlightAware
06:35AM -10.3080 -50.9180 154° Southeast 486 559 33,000  Level FlightAware
06:36AM -10.4040 -50.8690 153° Southeast 487 560 33,000  Level FlightAware
06:37AM -10.4660 -50.8370 153° Southeast 487 560 33,000  Level FlightAware
06:38AM -10.5480 -50.7950 153° Southeast 486 559 33,000  Level FlightAware
06:38AM -10.6500 -50.7430 153° Southeast 486 559 33,000  Level FlightAware
06:39AM -10.7680 -50.6870 155° Southeast 486 559 33,000  Level FlightAware
06:40AM -10.7000 -50.7180 336° Northwest 474 545 33,000  Level FlightAware
06:40AM -10.9260 -50.7360 184° South 477 549 33,000  Level FlightAware
06:41AM -11.0100 -50.7330 178° South 481 554 33,000  Level FlightAware
06:42AM -11.1180 -50.6900 159° South 484 557 33,000  Level FlightAware
06:43AM -11.1650 -50.6650 152° Southeast 484 557 33,000  Level FlightAware
06:44AM -11.3180 -50.5790 151° Southeast 484 557 33,000  Level FlightAware
06:45AM -11.4210 -50.5230 152° Southeast 481 554 33,000  Level FlightAware
06:45AM -11.5080 -50.4750 152° Southeast 481 554 33,000  Level FlightAware
06:46AM -11.6200 -50.4120 151° Southeast 480 552 33,000  Level FlightAware
06:47AM -11.6860 -50.3750 151° Southeast 480 552 33,000  Level FlightAware
06:48AM -11.7520 -50.3370 151° Southeast 480 552 33,000  Level FlightAware
06:48AM -11.8500 -50.2850 153° Southeast 474 545 33,000  Level FlightAware
06:49AM -11.9290 -50.2400 151° Southeast 474 545 33,000  Level FlightAware
06:50AM -12.0200 -50.1900 152° Southeast 470 541 33,000 540 Level FlightAware
06:52AM -12.2339 -50.1243 163° South  Level Estimated
06:52AM -12.2600 -50.0570 163° South 473 544 34,600  Level FlightAware
06:53AM -12.3380 -50.0120 151° Southeast 473 544 34,600  Level FlightAware
06:53AM -12.4030 -49.9760 152° Southeast 473 544 34,600  Level FlightAware
06:54AM -12.4680 -49.9390 151° Southeast 473 544 34,600  Level FlightAware
06:55AM -12.5330 -49.9020 151° Southeast 473 544 34,600  Level FlightAware
06:55AM -12.6150 -49.8550 151° Southeast 473 544 34,600  Level FlightAware
06:56AM -12.6800 -49.8180 151° Southeast 473 544 34,600  Level FlightAware
06:57AM -12.7450 -49.7810 151° Southeast 473 544 34,600  Level FlightAware
06:57AM -12.8100 -49.7440 151° Southeast 473 544 34,600  Level FlightAware
06:58AM -12.8750 -49.7070 151° Southeast 473 544 34,600  Level FlightAware
06:59AM -12.9560 -49.6610 151° Southeast 473 544 34,600  Level FlightAware
07:00AM -13.0210 -49.6240 151° Southeast 473 544 34,600  Level FlightAware
07:00AM -13.0870 -49.5870 151° Southeast 473 544 34,600  Level FlightAware
07:01AM -13.1520 -49.5500 151° Southeast 473 544 34,600  Level FlightAware
07:02AM -13.2170 -49.5130 151° Southeast 473 544 34,600 60 Level FlightAware
07:04AM -13.4523 -49.4467 165° South  Level Estimated
07:05AM -13.5719 -49.4129 165° South  Level Estimated
07:06AM -13.6916 -49.3790 165° South  Level Estimated
07:07AM -13.8112 -49.3452 165° South  Level Estimated
07:08AM -13.9308 -49.3113 165° South  Level Estimated
07:09AM -14.0504 -49.2774 165° South  Level Estimated
07:10AM -14.1700 -49.2434 165° South  Level Estimated
07:10AM -14.4470 -48.8310 165° South 488 562 35,600  Level FlightAware
07:11AM -14.2896 -49.2094 165° South  Level Estimated
07:11AM -14.5440 -48.7770 152° Southeast 491 565 36,000  Level FlightAware
07:12AM -14.6250 -48.7310 151° Southeast 491 565 36,000  Level FlightAware
07:13AM -14.7160 -48.6800 152° Southeast 491 565 36,000  Level FlightAware
07:13AM -14.7970 -48.6350 152° Southeast 491 565 36,000  Level FlightAware
07:14AM -14.8860 -48.5850 152° Southeast 491 565 36,000  Level FlightAware
07:15AM -14.9650 -48.5400 151° Southeast 490 564 36,000  Level FlightAware
07:15AM -15.0540 -48.4900 152° Southeast 491 565 36,000  Level FlightAware
07:16AM -15.1370 -48.4430 151° Southeast 491 565 36,000  Level FlightAware
07:17AM -15.2170 -48.3980 152° Southeast 490 564 36,000  Level FlightAware
07:18AM -15.3070 -48.3470 151° Southeast 490 564 36,000  Level FlightAware
07:18AM -15.3870 -48.3020 152° Southeast 490 564 36,000  Level FlightAware
07:19AM -15.4630 -48.2590 151° Southeast 491 565 36,000  Level FlightAware
07:20AM -15.5520 -48.2090 152° Southeast 493 567 36,000  Level FlightAware
07:20AM -15.6350 -48.1620 151° Southeast 495 570 36,000  Level FlightAware
07:21AM -15.7290 -48.1090 152° Southeast 497 572 36,000  Level FlightAware
07:22AM -15.8550 -48.0370 151° Southeast 497 572 36,000  Level FlightAware
07:23AM -16.0050 -48.0030 168° South 487 560 36,000  Level FlightAware
07:24AM -16.0780 -47.9790 162° South 487 560 36,000  Level FlightAware
07:25AM -16.2160 -47.9840 182° South 478 550 36,000  Level FlightAware
07:26AM -16.3110 -47.9750 175° South 477 549 36,000  Level FlightAware
07:27AM -16.4480 -47.9650 176° South 474 545 36,000  Level FlightAware
07:27AM -16.5330 -47.9590 176° South 473 544 36,000  Level FlightAware
07:28AM -16.6200 -47.9530 176° South 473 544 36,000  Level FlightAware
07:29AM -16.7010 -47.9470 176° South 471 542 36,000  Level FlightAware
07:29AM -16.7920 -47.9400 176° South 471 542 36,000  Level FlightAware
07:30AM -16.8650 -47.9350 176° South 471 542 36,000  Level FlightAware
07:31AM -16.9390 -47.9290 176° South 471 542 36,000  Level FlightAware
07:32AM -17.0320 -47.9230 176° South 471 542 36,000  Level FlightAware
07:32AM -17.1060 -47.9170 176° South 471 542 36,000  Level FlightAware
07:33AM -17.1800 -47.9120 176° South 471 542 36,000  Level FlightAware
07:34AM -17.2530 -47.9060 176° South 471 542 36,000  Level FlightAware
07:34AM -17.3460 -47.9000 176° South 471 542 36,000  Level FlightAware
07:35AM -17.4200 -47.8940 176° South 471 542 36,000  Level FlightAware
07:36AM -17.4940 -47.8890 176° South 471 542 36,000  Level FlightAware
07:36AM -17.5680 -47.8830 176° South 471 542 36,000  Level FlightAware
07:38AM -17.8830 -47.7900 164° South 462 532 36,000  Level FlightAware
07:39AM -17.9680 -47.7780 172° South 462 532 36,000  Level FlightAware
07:40AM -18.0930 -47.7610 173° South 462 532 36,000  Level FlightAware
07:40AM -18.1650 -47.7500 172° South 462 532 36,000  Level FlightAware
07:41AM -18.2950 -47.7330 173° South 462 532 36,000  Level FlightAware
07:44AM -18.5632 -47.6691 167° South  Level Estimated
07:45AM -18.6842 -47.6402 167° South  Level Estimated
07:46AM -18.8052 -47.6113 167° South  Level Estimated
07:47AM -18.9262 -47.5823 167° South  Level Estimated
07:48AM -19.0472 -47.5533 167° South  Level Estimated
07:49AM -19.1686 -47.5242 167° South  Level Estimated
07:50AM -19.2900 -47.4949 167° South  Level Estimated
07:51AM -19.4114 -47.4657 167° South  Level Estimated
07:52AM -19.5328 -47.4364 167° South  Level Estimated
07:53AM -19.6542 -47.4071 167° South  Level Estimated
07:54AM -19.7756 -47.3777 167° South  Level Estimated
07:55AM -19.8970 -47.3483 167° South  Level Estimated
07:55AM -20.0790 -47.5040 167° South 472 543 36,000  Level FlightAware
07:58AM -20.3745 -47.4148 164° South  Level Estimated
07:59AM -20.4942 -47.3785 164° South  Level Estimated
07:59AM -20.6470 -47.4630 164° South 468 539 36,000  Level FlightAware
08:00AM -20.7220 -47.4570 176° South 468 539 36,000  Level FlightAware
08:00AM -20.8210 -47.4500 176° South 467 537 36,000  Level FlightAware
08:01AM -20.9160 -47.4430 176° South 468 539 36,000  Level FlightAware
08:02AM -21.0040 -47.4370 176° South 469 540 36,000  Level FlightAware
08:03AM -21.0900 -47.4300 176° South 469 540 36,000  Level FlightAware
08:03AM -21.1790 -47.4240 176° South 470 541 36,000  Level FlightAware
08:04AM -21.2780 -47.4170 176° South 469 540 36,000  Level FlightAware
08:05AM -21.3730 -47.4100 176° South 469 540 36,000  Level FlightAware
08:05AM -21.4590 -47.4030 176° South 469 540 36,000 -180 Level FlightAware
08:06AM -21.5470 -47.3970 176° South 466 536 35,800 -540 Descending FlightAware
08:07AM -21.6460 -47.3890 176° South 453 521 35,300 -600 Descending FlightAware
08:07AM -21.7270 -47.3830 176° South 448 516 35,000 -360 Descending FlightAware
08:08AM -21.8210 -47.3760 176° South 451 519 34,800 -1,320 Descending FlightAware
08:09AM -21.9020 -47.3700 176° South 448 516 33,200 -1,320 Descending FlightAware
08:10AM -21.9960 -47.3580 173° South 436 502 33,000 -180 Descending FlightAware
08:10AM -22.0730 -47.3300 161° South 427 491 33,000  Level FlightAware
08:11AM -22.1430 -47.3010 159° South 400 460 33,000 -1,320 Level FlightAware
08:12AM -22.2120 -47.2720 159° South 410 472 31,300 -3,360 Descending FlightAware
08:12AM -22.2750 -47.2460 159° South 431 496 28,800 -3,480 Descending FlightAware
08:13AM -22.3630 -47.2090 159° South 436 502 26,400 -2,700 Descending FlightAware
08:14AM -22.4490 -47.1720 158° South 418 481 24,600 -2,580 Descending FlightAware
08:14AM -22.5200 -47.1410 158° South 415 478 22,800 -2,520 Descending FlightAware
08:15AM -22.5930 -47.1100 159° South 397 457 21,300 -2,100 Descending FlightAware
08:16AM -22.6610 -47.0810 159° South 385 443 20,000 -2,220 Descending FlightAware
08:17AM -22.7370 -47.0490 159° South 383 441 18,200 -2,280 Descending FlightAware
08:17AM -22.8010 -47.0220 159° South 364 419 16,800 -2,220 Descending FlightAware
08:18AM -22.8730 -46.9910 158° South 365 420 15,100 -2,160 Descending FlightAware
08:19AM -22.9340 -46.9650 159° South 344 396 13,800 -1,920 Descending FlightAware
08:19AM -22.9980 -46.9380 159° South 316 364 12,400 -1,860 Descending FlightAware
08:20AM -23.0510 -46.9150 158° South 296 341 11,200 -1,680 Descending FlightAware
08:21AM -23.1010 -46.8940 159° South 279 321 10,200 -1,320 Descending FlightAware
08:21AM -23.1350 -46.8790 158° South 258 297 9,700 -900 Descending FlightAware
08:22AM -23.1650 -46.8660 158° South 265 305 9,400 -780 Descending FlightAware
08:22AM -23.1990 -46.8520 159° South 263 303 9,000 -720 Descending FlightAware
08:23AM -23.2320 -46.8370 157° South 244 281 8,700 -720 Descending FlightAware
08:23AM -23.2470 -46.8310 160° South 226 260 8,500 -600 Descending FlightAware
08:23AM -23.2710 -46.8200 157° South 208 239 8,300 -480 Descending FlightAware
08:24AM -23.2850 -46.8140 159° South 207 238 8,200 -600 Descending FlightAware
08:24AM -23.3080 -46.8050 160° South 207 238 7,900 -780 Descending FlightAware
08:24AM -23.3200 -46.7980 152° Southeast 207 238 7,700 -840 Descending FlightAware
08:25AM -23.3420 -46.7780 140° Southeast 202 232 7,300 -1,080 Descending FlightAware
08:25AM -23.3530 -46.7670 137° Southeast 209 241 6,900 -1,380 Descending FlightAware
08:25AM -23.3700 -46.7480 134° Southeast 210 242 6,400 -1,020 Descending FlightAware
08:26AM -23.3920 -46.7260 137° Southeast 201 231 6,000 -840 Descending FlightAware
08:26AM -23.4130 -46.7040 136° Southeast 190 219 5,600 -780 Descending FlightAware
08:27AM -23.4280 -46.6880 136° Southeast 184 212 5,300 -660 Descending FlightAware
08:27AM -23.4470 -46.6690 137° Southeast 183 211 5,000 -780 Descending FlightAware
08:28AM -23.4630 -46.6520 136° Southeast 179 206 4,600 -900 Descending FlightAware
08:28AM -23.4700 -46.6430 130° Southeast 168 193 4,400 -480 Descending FlightAware
08:28AM -23.4720 -46.6340 104° East 173 199 4,400  Level FlightAware
08:28AM -23.4700 -46.6180 82° East 175 201 4,400 -540 Level FlightAware
08:29AM -23.4640 -46.5970 73° East 156 180 4,000 -1,020 Descending FlightAware
08:29AM -23.4580 -46.5740 74° East 155 178 3,500 -900 Descending FlightAware
08:30AM -23.4520 -46.5510 74° East 157 181 3,100 -780 Descending FlightAware
08:30AM -23.4470 -46.5330 73° East 156 180 2,800 -780 Descending FlightAware
08:31AM -23.4410 -46.5080 75° East 159 183 2,400 -840 Descending FlightAware